createdAt,value
2022-10-24T03:19:52.766Z,100.00
2022-10-24T03:23:03.473Z,100.00
2022-10-24T03:26:14.318Z,100.00
2022-10-24T03:29:24.914Z,100.00
2022-10-24T03:32:35.582Z,100.00
2022-10-24T03:35:47.406Z,100.00
2022-10-24T03:38:57.982Z,100.00
2022-10-24T03:42:08.692Z,100.00
2022-10-24T03:45:19.469Z,100.00
2022-10-24T03:48:30.095Z,100.00
2022-10-24T03:51:42.234Z,100.00
2022-10-24T03:54:53.020Z,100.00
2022-10-24T03:58:03.509Z,100.00
2022-10-24T04:01:18.265Z,100.00
2022-10-24T04:04:28.915Z,100.00
2022-10-24T04:07:40.642Z,100.00
2022-10-24T04:10:51.161Z,100.00
2022-10-24T04:17:13.535Z,100.00
2022-10-24T04:20:24.517Z,100.00
2022-10-24T04:23:41.120Z,100.00
2022-10-24T04:26:51.542Z,100.00
2022-10-24T04:30:02.072Z,100.00
2022-10-24T04:33:12.690Z,100.00
2022-10-24T04:36:23.331Z,100.00
2022-10-24T04:39:35.103Z,100.00
2022-10-24T04:42:46.069Z,100.00
2022-10-24T04:45:56.919Z,100.00
2022-10-24T04:49:08.124Z,100.00
2022-10-24T04:52:18.583Z,100.00
2022-10-24T04:55:30.958Z,100.00
2022-10-24T04:58:41.370Z,100.00
2022-10-24T06:02:22.231Z,100.00
2022-10-24T06:05:32.821Z,100.00
2022-10-24T06:08:43.250Z,100.00
2022-10-24T06:11:53.551Z,100.00
2022-10-24T06:15:05.876Z,100.00
2022-10-24T06:18:19.863Z,100.00
2022-10-24T06:21:30.019Z,100.00
2022-10-24T06:24:39.764Z,100.00
2022-10-24T06:27:49.529Z,100.00
2022-10-24T06:31:03.170Z,100.00
2022-10-24T06:34:14.175Z,100.00
2022-10-24T06:37:24.029Z,100.00
2022-10-24T06:44:11.817Z,100.00
2022-10-24T06:47:22.576Z,100.00
2022-10-24T06:50:34.329Z,100.00
2022-10-24T06:53:45.417Z,100.00
2022-10-24T06:56:55.925Z,100.00
2022-10-24T07:00:07.136Z,100.00
2022-10-24T07:03:17.853Z,100.00
2022-10-24T07:06:31.229Z,100.00
2022-10-24T07:09:41.954Z,100.00
2022-10-24T07:12:52.711Z,100.00
2022-10-24T07:16:03.541Z,100.00
2022-10-24T07:19:14.218Z,100.00
2022-10-24T07:22:27.433Z,100.00
2022-10-24T07:25:40.471Z,100.00
2022-10-24T07:28:53.809Z,100.00
2022-10-24T07:32:04.993Z,100.00
2022-10-24T07:35:15.783Z,100.00
2022-10-24T07:38:28.539Z,100.00
2022-10-24T07:41:41.803Z,100.00
2022-10-24T07:44:53.248Z,100.00
2022-10-24T07:48:05.817Z,100.00
2022-10-24T07:51:17.367Z,100.00
2022-10-24T07:54:32.974Z,100.00
2022-10-24T07:57:47.812Z,100.00
2022-10-24T08:01:05.605Z,100.00
2022-10-24T08:04:16.693Z,100.00
2022-10-24T08:07:27.309Z,100.00
2022-10-24T08:10:39.896Z,100.00
2022-10-24T08:13:50.953Z,100.00
2022-10-24T08:17:01.573Z,100.00
2022-10-24T08:20:13.099Z,100.00
2022-10-24T08:23:25.527Z,100.00
2022-10-24T08:26:40.595Z,97.34
2022-10-24T08:29:51.138Z,96.99
2022-10-24T08:33:02.019Z,88.23
2022-10-24T08:36:20.738Z,85.34
2022-10-24T08:39:31.234Z,85.86
2022-10-24T08:42:43.403Z,84.75
2022-10-24T08:46:05.385Z,84.77
2022-10-24T08:49:24.884Z,87.70
2022-10-24T08:52:41.724Z,82.41
2022-10-24T08:55:54.671Z,81.99
2022-10-24T08:59:07.775Z,78.41
2022-10-24T09:02:22.648Z,77.56
2022-10-24T09:05:41.718Z,74.43
2022-10-24T09:08:54.631Z,71.98
2022-10-24T09:12:10.154Z,72.29
2022-10-24T09:15:27.262Z,70.78
2022-10-24T09:18:41.829Z,69.20
2022-10-24T09:21:53.868Z,67.27
2022-10-24T09:25:09.054Z,67.09
2022-10-24T09:28:20.427Z,65.19
2022-10-24T09:31:32.383Z,66.25
2022-10-24T09:34:43.292Z,65.71
2022-10-24T09:37:56.133Z,65.73
2022-10-24T09:41:09.208Z,64.96
2022-10-24T09:44:33.140Z,65.58
2022-10-24T09:47:45.185Z,64.37
2022-10-24T09:50:57.052Z,61.97
2022-10-24T09:54:26.422Z,62.97
2022-10-24T09:57:40.925Z,63.17
2022-10-24T10:00:59.831Z,61.61
2022-10-24T10:04:17.896Z,61.28
2022-10-24T10:07:30.773Z,58.86
2022-10-24T10:10:42.210Z,57.59
2022-10-24T10:22:52.799Z,56.29
2022-10-24T10:26:13.128Z,56.50
2022-10-24T10:29:25.705Z,55.94
2022-10-24T10:32:44.009Z,54.66
2022-10-24T10:36:01.531Z,55.58
2022-10-24T10:39:25.795Z,54.92
2022-10-24T10:42:43.954Z,57.77
2022-10-24T10:46:07.855Z,57.06
2022-10-24T10:49:25.695Z,58.77
2022-10-24T10:52:48.864Z,56.57
2022-10-24T10:56:09.877Z,58.66
2022-10-24T10:59:36.022Z,60.63
2022-10-24T11:03:03.878Z,62.77
2022-10-24T11:06:30.980Z,63.10
2022-10-24T11:09:47.061Z,62.00
2022-10-24T11:13:02.302Z,63.15
2022-10-24T11:16:19.131Z,62.94
2022-10-24T11:19:36.588Z,62.34
2022-10-24T11:22:52.336Z,62.10
2022-10-24T11:26:07.301Z,61.59
2022-10-24T11:29:25.871Z,60.88
2022-10-24T11:32:42.418Z,58.49
2022-10-24T11:36:03.121Z,57.27
2022-10-24T11:39:20.190Z,58.43
2022-10-24T11:42:39.081Z,56.90
2022-10-24T11:45:57.754Z,58.20
2022-10-24T11:49:18.068Z,57.42
2022-10-24T11:52:33.415Z,56.67
2022-10-24T11:55:49.692Z,58.70
2022-10-24T11:59:03.399Z,58.96
2022-10-24T12:02:46.108Z,57.76
2022-10-24T12:06:11.630Z,58.35
2022-10-24T12:09:37.479Z,57.47
2022-10-24T12:13:07.304Z,59.89
2022-10-24T12:16:31.597Z,61.15
2022-10-24T12:19:46.150Z,62.29
2022-10-24T12:22:58.937Z,62.64
2022-10-24T12:26:20.457Z,64.15
2022-10-24T12:29:33.873Z,63.23
2022-10-24T12:32:48.444Z,60.85
2022-10-24T12:36:01.179Z,61.13
2022-10-24T12:39:12.307Z,60.41
2022-10-24T12:43:06.506Z,60.02
2022-10-24T12:46:40.970Z,59.62
2022-10-24T12:49:52.154Z,61.18
2022-10-24T12:53:07.481Z,59.71
2022-10-24T12:56:20.937Z,60.79
2022-10-24T12:59:34.279Z,60.94
2022-10-24T13:03:00.991Z,60.75
2022-10-24T13:06:24.439Z,60.53
2022-10-24T13:09:47.132Z,60.55
2022-10-24T13:13:14.903Z,60.29
2022-10-24T13:16:33.696Z,60.76
2022-10-24T13:19:44.915Z,60.71
2022-10-24T13:23:03.391Z,61.45
2022-10-24T13:26:37.558Z,59.54
2022-10-24T13:30:01.665Z,60.45
2022-10-24T13:33:33.964Z,59.72
2022-10-24T13:36:46.715Z,60.10
2022-10-24T13:40:02.758Z,59.00
2022-10-24T13:43:20.744Z,60.30
2022-10-24T13:46:42.058Z,59.47
2022-10-24T13:49:57.313Z,60.73
2022-10-24T13:53:21.034Z,60.37
2022-10-24T13:56:41.230Z,59.99
2022-10-24T13:59:58.325Z,60.90
2022-10-24T14:03:15.606Z,60.32
2022-10-24T14:06:28.091Z,59.40
2022-10-24T14:09:42.707Z,58.94
2022-10-24T14:12:57.292Z,60.37
2022-10-24T14:16:09.731Z,60.51
2022-10-24T14:19:28.415Z,59.92
2022-10-24T14:22:43.097Z,60.77
2022-10-24T14:25:57.335Z,60.54
2022-10-24T14:29:22.433Z,60.64
2022-10-24T14:32:34.799Z,60.55
2022-10-24T14:35:46.192Z,61.26
2022-10-24T14:38:59.381Z,62.23
2022-10-24T14:42:16.188Z,62.30
2022-10-24T14:45:28.732Z,61.91
2022-10-24T14:48:43.216Z,63.75
2022-10-24T14:51:56.070Z,63.62
2022-10-24T14:55:17.884Z,63.32
2022-10-24T14:58:31.114Z,64.70
2022-10-24T15:01:41.935Z,63.82
2022-10-24T15:05:13.653Z,63.77
2022-10-24T15:08:35.321Z,64.06
2022-10-24T15:11:47.945Z,65.10
2022-10-24T15:15:21.558Z,64.88
2022-10-24T15:18:36.934Z,65.92
2022-10-24T15:21:50.325Z,66.58
2022-10-24T15:25:03.766Z,67.04
2022-10-24T15:28:37.845Z,66.53
2022-10-24T15:31:50.691Z,68.71
2022-10-24T15:35:01.561Z,68.18
2022-10-24T15:38:17.171Z,68.39
2022-10-24T15:41:28.596Z,69.57
2022-10-24T15:44:40.887Z,69.94
2022-10-24T15:47:53.102Z,71.05
2022-10-24T15:51:05.223Z,71.06
2022-10-24T15:54:19.424Z,71.95
2022-10-24T15:57:30.588Z,73.49
2022-10-24T16:00:42.476Z,73.13
2022-10-24T16:03:53.640Z,72.37
2022-10-24T16:07:05.305Z,72.74
2022-10-24T16:10:19.952Z,74.55
2022-10-24T16:13:32.448Z,74.52
2022-10-24T16:16:46.411Z,74.49
2022-10-24T16:19:59.392Z,75.28
2022-10-24T16:23:12.715Z,75.75
2022-10-24T16:26:27.594Z,76.73
2022-10-24T16:29:39.986Z,78.41
2022-10-24T16:32:54.427Z,79.06
2022-10-24T16:36:07.381Z,80.01
2022-10-24T16:39:20.666Z,81.11
2022-10-24T16:42:35.823Z,82.57
2022-10-24T16:45:58.346Z,82.87
2022-10-24T16:49:12.296Z,85.17
2022-10-24T16:52:26.319Z,86.18
2022-10-24T16:55:40.547Z,86.89
2022-10-24T16:58:57.471Z,88.13
2022-10-24T17:02:13.932Z,89.14
2022-10-24T17:05:31.586Z,88.71
2022-10-24T17:08:47.105Z,90.74
2022-10-24T17:12:03.052Z,88.80
2022-10-24T17:15:22.432Z,88.95
2022-10-24T17:18:40.193Z,88.98
2022-10-24T17:21:56.477Z,89.43
2022-10-24T17:25:21.397Z,90.57
2022-10-24T17:28:37.359Z,91.58
2022-10-24T17:31:54.916Z,91.53
2022-10-24T17:35:11.313Z,93.51
2022-10-24T17:38:40.420Z,94.35
2022-10-24T17:41:57.195Z,95.96
2022-10-24T17:45:18.482Z,96.88
2022-10-24T17:48:38.100Z,97.35
2022-10-24T17:51:54.204Z,96.39
2022-10-24T17:55:22.244Z,96.38
2022-10-24T17:58:45.457Z,96.94
2022-10-24T18:02:02.592Z,98.79
2022-10-24T18:05:22.903Z,98.86
2022-10-24T18:08:40.906Z,98.76
2022-10-24T18:11:59.366Z,98.79
2022-10-24T18:15:17.158Z,100.00
2022-10-24T18:18:34.381Z,100.00
2022-10-24T18:21:52.996Z,100.00
2022-10-24T18:25:09.167Z,100.00
2022-10-24T18:28:29.250Z,100.00
2022-10-24T18:31:45.441Z,100.00
2022-10-24T18:35:01.332Z,100.00
2022-10-24T18:38:21.675Z,100.00
2022-10-24T18:41:47.534Z,100.00
2022-10-24T18:45:03.559Z,100.00
2022-10-24T18:48:20.145Z,100.00
2022-10-24T18:51:39.973Z,100.00
2022-10-24T18:55:05.267Z,100.00
2022-10-24T18:58:24.642Z,100.00
2022-10-24T19:01:50.629Z,100.00
2022-10-24T19:05:21.091Z,100.00
2022-10-24T19:08:38.132Z,100.00
2022-10-24T19:11:56.564Z,100.00
2022-10-24T19:15:12.953Z,100.00
2022-10-24T19:18:31.876Z,100.00
2022-10-24T19:21:49.839Z,100.00
2022-10-24T19:25:07.399Z,100.00
2022-10-24T19:28:27.903Z,100.00
2022-10-24T19:31:48.889Z,100.00
2022-10-24T19:35:06.944Z,100.00
2022-10-24T19:38:23.186Z,100.00
2022-10-24T19:41:39.357Z,100.00
2022-10-24T19:44:59.061Z,100.00
2022-10-24T19:48:15.907Z,100.00
2022-10-24T19:51:32.566Z,100.00
2022-10-24T19:54:49.103Z,100.00
2022-10-24T19:58:04.665Z,100.00
2022-10-24T20:01:23.213Z,100.00
2022-10-24T20:04:42.641Z,100.00
2022-10-24T20:07:59.717Z,100.00
2022-10-24T20:11:16.637Z,100.00
2022-10-24T20:14:32.162Z,100.00
